Time;durP1;ratioP1;P1;durP2;ratioP2;P2;SDS_P1;SDS_P2;PMS_P1;PMS_P2;Temp;Humidity;BMP_temperature;BMP_pressure;BME280_temperature;BME280_humidity;BME280_pressure;Samples;Min_cycle;Max_cycle;Signal;HPM_P1;HPM_P2
2021/07/29 00:00:32;;;;;;;338.55;141.55;;;;;;;19.61;63.13;93619.13;5073193;28;20521;-56
2021/07/29 00:03:01;;;;;;;303.02;134.93;;;;;;;19.50;63.48;93608.59;5073198;28;20051;-56
2021/07/29 00:05:27;;;;;;;262.88;111.57;;;;;;;19.61;63.49;93618.38;5071546;28;20574;-57
2021/07/29 00:07:53;;;;;;;137.93;65.03;;;;;;;19.48;63.06;93611.28;5073099;28;20036;-60
2021/07/29 00:10:19;;;;;;;127.03;58.88;;;;;;;19.62;63.52;93626.16;5073042;28;20078;-64
2021/07/29 00:12:45;;;;;;;181.70;77.95;;;;;;;19.63;63.02;93630.44;5072848;28;20489;-64
2021/07/29 00:15:12;;;;;;;531.35;228.15;;;;;;;19.58;63.25;93627.97;5072735;28;20047;-63
2021/07/29 00:20:24;;;;;;;472.90;218.48;;;;;;;19.32;62.85;93623.47;5073004;28;20036;-64
2021/07/29 00:22:54;;;;;;;866.03;421.02;;;;;;;19.33;62.59;93625.69;5072593;28;20082;-63
2021/07/29 00:25:20;;;;;;;486.65;239.32;;;;;;;19.31;62.62;93628.34;5072702;28;20032;-57
2021/07/29 00:27:46;;;;;;;639.45;293.25;;;;;;;19.31;62.86;93630.41;5072551;28;20074;-57
2021/07/29 00:30:13;;;;;;;269.00;130.20;;;;;;;19.16;63.74;93625.97;5072488;28;20029;-58
2021/07/29 00:32:39;;;;;;;303.17;133.02;;;;;;;19.23;64.22;93627.09;5072784;28;20029;-59
2021/07/29 00:35:07;;;;;;;443.20;196.07;;;;;;;19.17;64.54;93633.03;5072428;28;20110;-59
2021/07/29 00:37:38;;;;;;;411.48;198.57;;;;;;;19.26;64.36;93621.03;5072703;28;20062;-58
2021/07/29 00:40:05;;;;;;;442.42;206.63;;;;;;;19.33;63.87;93620.09;5072052;28;20024;-57
2021/07/29 00:42:31;;;;;;;398.90;172.63;;;;;;;19.30;63.95;93623.34;5052211;28;20033;-59
2021/07/29 00:44:56;;;;;;;349.40;155.38;;;;;;;19.32;63.60;93621.41;5052516;28;20021;-58
2021/07/29 00:47:22;;;;;;;287.67;125.20;;;;;;;19.26;62.93;93629.44;5052325;28;20054;-61
2021/07/29 00:49:48;;;;;;;294.98;134.57;;;;;;;19.18;63.32;93619.78;5052153;28;20028;-58
2021/07/29 00:52:14;;;;;;;348.55;144.77;;;;;;;19.13;63.61;93618.03;5052228;28;20025;-56
2021/07/29 00:54:40;;;;;;;376.90;165.98;;;;;;;19.10;63.58;93610.84;5062428;28;20047;-59
2021/07/29 00:57:08;;;;;;;337.40;148.10;;;;;;;19.13;63.56;93609.63;5070646;28;20514;-60
2021/07/29 00:59:34;;;;;;;323.25;143.68;;;;;;;18.97;63.94;93589.75;5071944;28;20028;-59
2021/07/29 01:01:59;;;;;;;405.25;174.00;;;;;;;19.04;63.97;93599.25;5070680;28;20097;-57
2021/07/29 01:04:25;;;;;;;449.23;198.20;;;;;;;18.89;64.31;93601.13;5071764;28;20043;-56
2021/07/29 01:06:50;;;;;;;521.33;234.63;;;;;;;18.86;64.21;93602.31;5070518;28;20127;-59
2021/07/29 01:09:16;;;;;;;441.73;211.73;;;;;;;18.96;63.60;93609.91;5071484;28;20032;-57
2021/07/29 01:11:43;;;;;;;432.42;195.95;;;;;;;18.89;63.49;93603.94;5071883;28;20031;-59
2021/07/29 01:14:09;;;;;;;334.20;147.88;;;;;;;18.81;64.33;93613.84;5071581;28;20032;-59
2021/07/29 01:16:35;;;;;;;417.65;178.55;;;;;;;18.73;64.41;93607.72;5071635;28;20028;-58
2021/07/29 01:19:02;;;;;;;445.40;188.43;;;;;;;18.69;64.73;93605.38;5071770;28;20032;-59
2021/07/29 01:21:29;;;;;;;351.73;168.63;;;;;;;18.75;64.62;93610.66;5071481;28;20031;-58
2021/07/29 01:23:55;;;;;;;303.80;144.43;;;;;;;18.75;64.10;93611.38;5071467;28;20048;-58
2021/07/29 01:26:21;;;;;;;337.77;149.52;;;;;;;18.72;64.48;93618.19;5071230;28;20032;-58
2021/07/29 01:28:46;;;;;;;396.45;181.80;;;;;;;18.62;64.37;93614.72;5071661;28;20051;-58
2021/07/29 01:31:11;;;;;;;337.77;141.57;;;;;;;18.65;64.06;93616.31;5071581;28;20492;-58
2021/07/29 01:33:37;;;;;;;331.17;147.93;;;;;;;18.57;65.04;93615.03;5071489;28;20178;-58
2021/07/29 01:36:03;;;;;;;333.95;135.80;;;;;;;18.54;65.08;93613.41;5071465;28;20025;-57
2021/07/29 01:38:29;;;;;;;256.98;121.32;;;;;;;18.63;65.04;93618.22;5071410;28;20035;-57
2021/07/29 01:40:54;;;;;;;257.27;119.05;;;;;;;18.59;64.46;93620.75;5071074;28;20024;-58
2021/07/29 01:43:20;;;;;;;324.05;143.98;;;;;;;18.32;64.87;93592.34;5071123;28;20020;-58
2021/07/29 01:45:46;;;;;;;289.98;126.95;;;;;;;18.41;64.80;93606.25;5071215;28;20470;-58
2021/07/29 01:48:11;;;;;;;237.05;103.25;;;;;;;18.44;65.38;93598.75;5070549;28;20086;-58
2021/07/29 01:50:37;;;;;;;232.63;102.88;;;;;;;18.42;65.71;93596.56;5070294;28;20040;-58
2021/07/29 01:53:02;;;;;;;249.50;110.50;;;;;;;18.39;65.52;93603.31;5071134;28;20028;-58
2021/07/29 01:55:28;;;;;;;265.63;111.85;;;;;;;18.50;65.24;93607.56;5070114;28;20510;-58
2021/07/29 01:57:53;;;;;;;306.33;128.95;;;;;;;18.50;64.84;93605.50;5071131;28;20536;-58
2021/07/29 02:00:19;;;;;;;289.42;123.40;;;;;;;18.54;64.66;93602.25;5070642;28;20527;-58
2021/07/29 02:02:44;;;;;;;265.20;112.60;;;;;;;18.54;65.00;93614.16;5071013;28;20027;-58
2021/07/29 02:05:09;;;;;;;276.88;126.97;;;;;;;18.47;64.29;93603.19;5070078;28;20028;-58
2021/07/29 02:07:35;;;;;;;270.35;127.22;;;;;;;18.32;65.11;93607.03;5070336;28;20115;-58
2021/07/29 02:10:00;;;;;;;314.40;138.95;;;;;;;18.31;65.28;93602.06;5070451;28;20508;-58
2021/07/29 02:12:26;;;;;;;326.77;143.82;;;;;;;18.28;65.31;93600.47;5070168;28;20032;-59
2021/07/29 02:14:51;;;;;;;196.75;88.90;;;;;;;18.26;65.39;93592.66;5070445;28;20032;-60
2021/07/29 02:17:20;;;;;;;321.70;143.40;;;;;;;18.17;65.40;93582.25;5070747;28;20013;-60
2021/07/29 02:19:46;;;;;;;;;;;;;;;18.35;65.40;93602.31;5071036;28;20016;-60
2021/07/29 02:22:11;;;;;;;88.53;38.78;;;;;;;18.22;65.39;93588.84;5069828;28;19923;-58
2021/07/29 02:24:36;;;;;;;127.50;62.90;;;;;;;18.19;65.88;93583.13;5069370;28;20099;-56
2021/07/29 02:27:02;;;;;;;158.02;70.38;;;;;;;18.05;65.98;93570.25;5069395;28;20501;-59
2021/07/29 02:29:28;;;;;;;125.13;56.38;;;;;;;18.13;64.66;93585.50;5069779;28;20020;-58
2021/07/29 02:31:53;;;;;;;117.20;52.38;;;;;;;18.07;64.96;93575.97;5069556;28;20033;-58
2021/07/29 02:34:19;;;;;;;140.98;65.15;;;;;;;18.03;65.58;93570.88;5069158;28;20039;-59
2021/07/29 02:36:44;;;;;;;140.13;63.47;;;;;;;18.04;65.93;93563.22;5069540;28;20028;-59
2021/07/29 02:39:09;;;;;;;147.35;65.38;;;;;;;18.08;66.02;93580.25;5069310;28;20039;-60
2021/07/29 02:41:36;;;;;;;201.02;91.32;;;;;;;18.09;65.77;93567.75;5069218;28;20029;-60
2021/07/29 02:44:02;;;;;;;178.45;81.65;;;;;;;18.05;65.24;93576.59;5069103;28;20103;-61
2021/07/29 02:46:27;;;;;;;225.18;93.00;;;;;;;18.05;64.75;93559.81;5069137;28;20493;-60
2021/07/29 02:48:53;;;;;;;159.20;74.53;;;;;;;18.03;65.16;93556.91;5068600;28;20028;-60
2021/07/29 02:51:18;;;;;;;195.55;85.22;;;;;;;17.92;65.84;93562.38;5069105;28;20031;-58
2021/07/29 02:53:44;;;;;;;182.45;79.97;;;;;;;17.92;65.55;93568.69;5069418;28;20012;-59
2021/07/29 02:56:09;;;;;;;260.80;112.47;;;;;;;17.92;65.64;93567.97;5068873;28;20040;-59
2021/07/29 02:58:35;;;;;;;239.90;99.38;;;;;;;17.81;65.68;93566.53;5069511;28;20025;-59
2021/07/29 03:01:01;;;;;;;159.32;78.20;;;;;;;17.85;65.00;93564.00;5070130;28;20429;-59
2021/07/29 03:03:27;;;;;;;244.45;106.35;;;;;;;17.85;65.37;93561.22;5074047;28;20029;-59
2021/07/29 03:05:52;;;;;;;210.00;87.32;;;;;;;17.84;65.44;93556.97;5073801;28;20413;-59
2021/07/29 03:08:18;;;;;;;184.30;78.63;;;;;;;17.91;65.48;93566.50;5073954;28;20071;-59
2021/07/29 03:10:47;;;;;;;164.95;75.35;;;;;;;17.79;64.98;93563.59;5073903;28;20409;-59
2021/07/29 03:13:13;;;;;;;136.18;64.10;;;;;;;17.81;65.30;93563.00;5073546;28;20024;-59
2021/07/29 03:15:38;;;;;;;138.13;68.15;;;;;;;17.79;65.59;93558.03;5073690;28;20110;-59
2021/07/29 03:18:03;;;;;;;173.73;74.90;;;;;;;17.82;65.81;93564.47;5073558;28;20028;-59
2021/07/29 03:20:29;;;;;;;165.43;71.38;;;;;;;17.77;65.87;93563.47;5073995;28;20028;-59
2021/07/29 03:22:54;;;;;;;145.60;65.10;;;;;;;17.74;66.09;93567.44;5073858;28;20417;-59
2021/07/29 03:25:20;;;;;;;172.10;78.32;;;;;;;17.59;66.31;93553.81;5072152;28;20686;-59
2021/07/29 03:27:45;;;;;;;156.93;74.03;;;;;;;17.73;66.32;93579.94;5072458;28;20031;-58
2021/07/29 03:30:11;;;;;;;187.65;78.05;;;;;;;17.66;66.58;93580.84;5071902;28;20027;-58
2021/07/29 03:32:37;;;;;;;178.57;76.90;;;;;;;17.69;66.69;93578.94;5072183;28;20016;-58
2021/07/29 03:35:03;;;;;;;219.30;93.47;;;;;;;17.59;66.52;93586.59;5072309;28;20023;-58
2021/07/29 03:37:29;;;;;;;181.73;84.93;;;;;;;17.40;67.04;93584.56;5072670;28;20073;-58
2021/07/29 03:39:54;;;;;;;216.93;99.85;;;;;;;17.54;67.22;93590.44;5072259;28;20024;-58
2021/07/29 03:42:22;;;;;;;189.35;86.30;;;;;;;17.65;66.72;93579.38;5072146;28;20028;-58
2021/07/29 03:44:48;;;;;;;199.30;89.68;;;;;;;17.68;66.99;93586.56;5072531;28;20016;-60
2021/07/29 03:47:13;;;;;;;206.40;89.40;;;;;;;17.78;66.66;93586.56;5072333;28;20017;-60
2021/07/29 03:49:39;;;;;;;216.57;106.68;;;;;;;17.85;66.23;93583.56;5073407;28;20043;-60
2021/07/29 03:52:04;;;;;;;179.55;80.65;;;;;;;17.95;65.17;93577.97;5073452;28;20025;-59
2021/07/29 03:54:31;;;;;;;141.43;66.82;;;;;;;17.91;65.28;93583.28;5072692;28;20020;-58
2021/07/29 03:56:56;;;;;;;91.60;48.50;;;;;;;17.76;65.61;93584.34;5072995;28;20032;-57
2021/07/29 03:59:22;;;;;;;133.70;53.08;;;;;;;17.67;65.78;93587.16;5073278;28;20031;-58
2021/07/29 04:01:48;;;;;;;109.35;49.75;;;;;;;17.51;66.33;93566.47;5073306;28;20027;-59
2021/07/29 04:04:13;;;;;;;85.53;48.70;;;;;;;17.61;66.83;93581.88;5072999;28;20021;-59
2021/07/29 04:06:39;;;;;;;125.10;62.22;;;;;;;17.68;67.14;93585.81;5072745;28;20028;-59
2021/07/29 04:09:04;;;;;;;173.23;78.85;;;;;;;17.77;67.50;93585.06;5073123;28;20047;-59
2021/07/29 04:11:30;;;;;;;146.80;74.05;;;;;;;17.86;67.37;93590.63;5073045;28;20494;-59
2021/07/29 04:13:55;;;;;;;206.90;91.50;;;;;;;17.94;67.18;93590.44;5071999;28;20528;-60
2021/07/29 04:16:20;;;;;;;204.82;94.80;;;;;;;18.12;67.08;93586.13;5073006;28;20398;-59
2021/07/29 04:18:46;;;;;;;273.25;123.90;;;;;;;18.12;67.24;93591.72;5072667;28;20406;-59
2021/07/29 04:21:16;;;;;;;286.30;135.30;;;;;;;18.21;67.51;93587.41;5072614;28;20020;-59
2021/07/29 04:23:43;;;;;;;318.45;148.75;;;;;;;18.24;67.20;93586.94;5072588;28;20032;-59
2021/07/29 04:26:08;;;;;;;382.17;175.98;;;;;;;18.46;67.39;93590.53;5072703;28;20448;-59
2021/07/29 04:28:33;;;;;;;413.83;191.15;;;;;;;18.47;66.48;93587.16;5072476;28;20021;-58
2021/07/29 04:30:59;;;;;;;396.67;174.48;;;;;;;18.58;66.26;93594.16;5072522;28;20033;-59
2021/07/29 04:33:24;;;;;;;458.67;216.95;;;;;;;18.58;66.63;93585.75;5072719;28;20021;-59
2021/07/29 04:35:50;;;;;;;416.23;204.98;;;;;;;18.56;65.80;93588.41;5072641;28;20020;-59
2021/07/29 04:38:15;;;;;;;506.95;259.20;;;;;;;18.71;66.23;93588.72;5072618;28;20028;-59
2021/07/29 04:40:41;;;;;;;517.40;252.88;;;;;;;18.77;65.75;93586.34;5072134;28;20472;-59
2021/07/29 04:43:06;;;;;;;551.45;257.85;;;;;;;18.88;66.18;93587.75;5072271;28;20021;-58
2021/07/29 04:45:32;;;;;;;580.88;281.75;;;;;;;18.98;66.12;93584.88;5072014;28;20016;-59
2021/07/29 04:47:57;;;;;;;650.85;329.50;;;;;;;19.04;65.72;93588.78;5072134;28;20021;-59
2021/07/29 04:50:23;;;;;;;540.88;288.10;;;;;;;19.13;66.53;93587.97;5071108;28;20074;-59
2021/07/29 04:52:53;;;;;;;620.30;300.42;;;;;;;19.20;66.92;93589.09;5072231;28;20025;-58
2021/07/29 04:55:19;;;;;;;594.75;286.80;;;;;;;19.23;65.92;93591.44;5067603;28;20506;-59
2021/07/29 04:57:44;;;;;;;639.05;313.40;;;;;;;19.33;66.47;93586.50;5072414;28;20032;-59
2021/07/29 05:00:11;;;;;;;671.15;322.90;;;;;;;19.37;65.73;93583.97;5072165;28;20519;-59
2021/07/29 05:02:36;;;;;;;713.53;324.50;;;;;;;19.47;65.64;93593.00;5071867;28;20028;-59
2021/07/29 05:05:02;;;;;;;883.35;352.27;;;;;;;19.47;65.42;93576.19;5072095;28;20035;-60
2021/07/29 05:07:27;;;;;;;720.10;327.95;;;;;;;19.54;65.46;93589.25;5072029;28;20071;-59
2021/07/29 05:09:53;;;;;;;835.90;407.38;;;;;;;19.54;65.04;93583.66;5070461;28;20031;-59
2021/07/29 05:12:18;;;;;;;845.63;411.95;;;;;;;19.65;65.23;93585.03;5071975;28;20040;-59
2021/07/29 05:14:44;;;;;;;858.17;410.40;;;;;;;19.73;66.06;93579.19;5071614;28;20497;-59
2021/07/29 05:17:11;;;;;;;928.53;452.65;;;;;;;19.82;65.75;93581.16;5071728;28;20052;-60
2021/07/29 05:19:37;;;;;;;966.95;456.90;;;;;;;19.87;66.14;93589.22;5071065;28;20032;-59
2021/07/29 05:22:03;;;;;;;967.70;489.40;;;;;;;19.92;66.16;93585.31;5072142;28;20027;-60
2021/07/29 05:24:28;;;;;;;1061.57;510.10;;;;;;;20.02;66.20;93596.41;5071339;28;20040;-60
2021/07/29 05:26:55;;;;;;;1128.07;546.83;;;;;;;20.11;66.02;93589.97;5070686;28;20024;-61
2021/07/29 05:29:20;;;;;;;1105.32;542.70;;;;;;;20.20;64.52;93586.31;5071090;28;20020;-58
2021/07/29 05:31:46;;;;;;;1169.88;557.92;;;;;;;20.29;64.89;93589.00;5071565;28;20055;-57
2021/07/29 05:34:11;;;;;;;1117.45;543.63;;;;;;;20.26;64.21;93570.63;5071520;28;20481;-58
2021/07/29 05:36:37;;;;;;;1101.82;577.20;;;;;;;20.46;62.93;93590.00;5071024;28;20027;-58
2021/07/29 05:39:04;;;;;;;1176.57;583.33;;;;;;;20.56;62.80;93585.72;5071329;28;20031;-58
2021/07/29 05:41:29;;;;;;;1230.25;610.28;;;;;;;20.64;62.09;93588.28;5071233;28;20103;-57
2021/07/29 05:43:55;;;;;;;1288.97;623.33;;;;;;;20.75;62.52;93584.69;5070974;28;20537;-57
2021/07/29 05:46:22;;;;;;;1188.07;564.80;;;;;;;20.86;62.13;93581.88;5071057;28;20017;-58
2021/07/29 05:48:47;;;;;;;1248.93;608.05;;;;;;;20.90;62.55;93586.97;5071038;28;20552;-58
2021/07/29 05:51:12;;;;;;;1336.25;669.30;;;;;;;20.96;62.28;93585.25;5071000;28;20020;-58
2021/07/29 05:53:38;;;;;;;1287.13;648.40;;;;;;;21.02;62.34;93585.63;5070780;28;20567;-57
2021/07/29 05:56:03;;;;;;;1298.38;628.38;;;;;;;21.12;61.25;93585.50;5070713;28;20528;-58
2021/07/29 05:58:29;;;;;;;1286.07;646.20;;;;;;;21.11;61.11;93576.34;5071008;28;20025;-58
2021/07/29 06:00:55;;;;;;;1335.88;625.17;;;;;;;21.30;60.02;93585.78;5070691;28;20047;-59
2021/07/29 06:03:20;;;;;;;1419.80;693.13;;;;;;;21.26;60.42;93574.34;5070580;28;20029;-58
2021/07/29 06:05:46;;;;;;;1402.93;682.03;;;;;;;21.47;61.21;93593.78;5070674;28;20027;-58
2021/07/29 06:08:12;;;;;;;1421.90;682.75;;;;;;;21.59;60.96;93594.47;5070565;28;20021;-58
2021/07/29 06:10:38;;;;;;;1388.57;681.90;;;;;;;21.62;60.55;93581.97;5070837;28;20044;-58
2021/07/29 06:13:04;;;;;;;1216.55;609.22;;;;;;;21.80;58.90;93585.81;5070570;28;20524;-58
2021/07/29 06:15:29;;;;;;;1376.13;680.40;;;;;;;21.89;60.08;93590.53;5070778;28;20107;-58
2021/07/29 06:18:08;;;;;;;1311.38;680.50;;;;;;;21.94;60.01;93586.59;5070445;28;20063;-59
2021/07/29 06:20:34;;;;;;;1313.72;670.40;;;;;;;22.03;60.42;93590.56;5070285;28;20521;-58
2021/07/29 06:22:59;;;;;;;1481.72;736.50;;;;;;;22.10;61.60;93590.28;5070660;28;20081;-58
2021/07/29 06:25:27;;;;;;;1634.82;780.08;;;;;;;22.15;61.46;93583.53;5070120;28;20025;-59
2021/07/29 06:27:52;;;;;;;1536.40;757.47;;;;;;;22.27;61.48;93589.06;5070233;28;20516;-59
2021/07/29 06:30:18;;;;;;;1777.88;829.50;;;;;;;22.34;62.06;93593.66;5065869;28;20025;-58
2021/07/29 06:32:44;;;;;;;1556.28;770.85;;;;;;;22.51;61.58;93584.69;5063334;28;20070;-59
2021/07/29 06:35:13;;;;;;;1072.78;576.20;;;;;;;22.72;57.56;93586.50;5067966;28;20399;-59
2021/07/29 06:37:39;;;;;;;1004.58;562.75;;;;;;;22.67;57.53;93571.50;5066229;28;20078;-58
2021/07/29 06:40:18;;;;;;;606.70;373.63;;;;;;;22.91;55.14;93586.81;5067695;28;20815;-58
2021/07/29 06:42:43;;;;;;;604.65;375.38;;;;;;;22.97;56.30;93584.31;5067659;28;20056;-58
2021/07/29 06:45:09;;;;;;;639.42;372.77;;;;;;;23.17;55.94;93584.56;5067914;28;20074;-58
2021/07/29 06:47:34;;;;;;;481.98;295.70;;;;;;;23.31;55.19;93585.25;5068107;28;20452;-59
2021/07/29 06:50:00;;;;;;;348.60;205.50;;;;;;;23.43;55.07;93580.25;5067865;28;20020;-56
2021/07/29 06:52:26;;;;;;;559.13;316.58;;;;;;;23.56;56.87;93592.84;5065422;28;20085;-58
2021/07/29 06:54:51;;;;;;;218.02;128.15;;;;;;;23.71;53.83;93592.16;5067276;28;20033;-53
2021/07/29 06:57:20;;;;;;;108.72;77.57;;;;;;;23.84;54.14;93583.66;5069688;28;20056;-58
2021/07/29 06:59:57;;;;;;;178.93;112.65;;;;;;;24.04;53.97;93592.31;5069135;28;20048;-59
2021/07/29 07:02:25;;;;;;;55.10;42.03;;;;;;;24.23;53.82;93591.81;5069969;28;20111;-58
2021/07/29 07:05:01;;;;;;;41.08;23.13;;;;;;;24.43;53.55;93597.66;5068971;28;20047;-58
2021/07/29 07:07:34;;;;;;;20.70;10.75;;;;;;;24.80;51.33;93603.56;5069910;28;20032;-58
2021/07/29 07:09:59;;;;;;;15.02;8.15;;;;;;;25.08;50.33;93593.47;5070223;28;20028;-58
2021/07/29 07:12:31;;;;;;;27.60;8.32;;;;;;;25.17;48.04;93592.44;5069279;28;20492;-58
2021/07/29 07:14:57;;;;;;;18.50;7.03;;;;;;;25.51;46.60;93590.38;5069132;28;20060;-58
2021/07/29 07:17:22;;;;;;;23.17;7.72;;;;;;;25.60;46.84;93583.66;5068415;28;20059;-59
2021/07/29 07:19:48;;;;;;;20.98;7.40;;;;;;;25.78;47.72;93590.03;5070058;28;20116;-58
2021/07/29 07:22:16;;;;;;;15.48;6.40;;;;;;;26.09;45.23;93586.34;5069105;28;20071;-59
2021/07/29 07:24:44;;;;;;;16.00;6.63;;;;;;;26.25;45.66;93586.94;5068476;28;20035;-58
2021/07/29 07:27:12;;;;;;;19.33;6.47;;;;;;;26.40;45.24;93588.22;5069110;28;20461;-58
2021/07/29 07:29:40;;;;;;;17.23;6.95;;;;;;;26.46;46.28;93586.34;5049649;28;20431;-58
2021/07/29 07:32:06;;;;;;;23.05;7.95;;;;;;;26.66;48.80;93581.41;5049688;28;20107;-59
2021/07/29 07:34:31;;;;;;;18.35;6.90;;;;;;;26.95;45.70;93577.50;5049316;28;20044;-58
2021/07/29 07:37:00;;;;;;;12.80;6.63;;;;;;;27.17;43.17;93575.44;5048525;28;20029;-58
2021/07/29 07:39:29;;;;;;;14.10;7.50;;;;;;;27.41;42.15;93576.31;5049592;28;20025;-58
2021/07/29 07:41:57;;;;;;;18.83;7.60;;;;;;;27.61;41.35;93571.28;5064382;28;20039;-58
2021/07/29 07:44:23;;;;;;;19.63;6.82;;;;;;;28.00;42.74;93575.38;5068984;28;20520;-59
2021/07/29 07:46:51;;;;;;;14.90;6.03;;;;;;;28.45;39.60;93578.19;5069251;28;20116;-59
2021/07/29 07:49:19;;;;;;;17.77;7.13;;;;;;;28.93;38.78;93576.03;5070163;28;20103;-59
2021/07/29 07:51:45;;;;;;;15.57;6.60;;;;;;;29.32;38.16;93570.03;5073178;28;20033;-59
2021/07/29 07:54:12;;;;;;;22.48;6.85;;;;;;;29.69;38.11;93565.97;5072900;28;20028;-59
2021/07/29 07:56:44;;;;;;;14.05;6.32;;;;;;;30.20;37.84;93567.91;5072697;28;20048;-59
2021/07/29 07:59:10;;;;;;;17.67;7.07;;;;;;;30.54;37.34;93565.84;5073127;28;20097;-58
2021/07/29 08:01:47;;;;;;;12.05;5.90;;;;;;;31.03;36.29;93565.47;5071858;28;20077;-59
2021/07/29 08:04:12;;;;;;;18.80;6.78;;;;;;;31.61;35.39;93567.97;5071917;28;20024;-59
2021/07/29 08:06:37;;;;;;;11.25;6.45;;;;;;;32.08;33.77;93564.50;5072744;28;20020;-59
2021/07/29 08:09:03;;;;;;;21.83;7.47;;;;;;;32.08;33.31;93558.78;5072744;28;20031;-58
2021/07/29 08:11:29;;;;;;;15.93;6.22;;;;;;;32.15;32.92;93563.91;5072859;28;20697;-58
2021/07/29 08:13:55;;;;;;;15.13;7.03;;;;;;;32.15;33.63;93569.63;5072779;28;20016;-59
2021/07/29 08:27:34;;;;;;;16.63;6.60;;;;;;;34.71;26.85;93560.22;5063710;28;20730;-60
2021/07/29 08:30:01;;;;;;;17.55;6.07;;;;;;;34.80;26.73;93541.63;5064209;27;20481;-60
2021/07/29 08:32:27;;;;;;;20.73;6.60;;;;;;;34.98;26.08;93556.03;5081317;27;20483;-60
2021/07/29 08:34:53;;;;;;;17.65;5.97;;;;;;;35.30;24.92;93550.47;5169087;27;20042;-60
2021/07/29 08:37:18;;;;;;;20.90;6.63;;;;;;;35.05;25.70;93546.78;5169663;27;20030;-60
2021/07/29 08:39:44;;;;;;;16.75;6.57;;;;;;;35.13;27.70;93548.94;5169700;27;20046;-60
2021/07/29 08:42:10;;;;;;;14.75;6.13;;;;;;;35.80;26.56;93541.94;5169606;27;20023;-60
2021/07/29 08:44:36;;;;;;;17.48;5.43;;;;;;;36.81;24.62;93533.25;5169896;27;20022;-58
2021/07/29 08:47:03;;;;;;;23.17;7.40;;;;;;;37.78;22.96;93541.44;5169105;27;20075;-58
2021/07/29 08:49:29;;;;;;;16.08;5.53;;;;;;;38.35;20.52;93547.53;5150372;27;20040;-58
2021/07/29 08:51:54;;;;;;;15.13;6.00;;;;;;;38.64;20.99;93543.63;5063802;28;20068;-57
2021/07/29 08:54:21;;;;;;;19.55;6.28;;;;;;;39.03;20.56;93546.81;5105781;27;20018;-58
2021/07/29 08:56:46;;;;;;;17.90;5.80;;;;;;;39.80;19.58;93540.81;5168318;27;20022;-58
2021/07/29 08:59:12;;;;;;;19.17;5.60;;;;;;;40.35;19.06;93537.06;5169176;27;20087;-58
2021/07/29 09:01:41;;;;;;;17.77;6.63;;;;;;;40.70;18.73;93541.50;5090661;27;20021;-58
2021/07/29 09:04:14;;;;;;;19.00;6.55;;;;;;;41.04;18.24;93542.34;5053452;28;20138;-58
2021/07/29 09:07:14;;;;;;;15.07;6.05;;;;;;;41.42;18.16;93542.31;5052604;28;20021;-58
2021/07/29 09:09:47;;;;;;;16.05;5.78;;;;;;;41.42;17.16;93535.78;4973964;28;20032;-58
2021/07/29 09:12:18;;;;;;;13.05;5.60;;;;;;;41.46;17.68;93542.22;5043046;28;20035;-58
2021/07/29 09:14:45;;;;;;;16.35;7.25;;;;;;;41.53;17.53;93537.72;5051737;28;20025;-58
2021/07/29 09:17:10;;;;;;;11.27;5.45;;;;;;;41.27;17.64;93534.66;5051327;28;20086;-58
2021/07/29 09:19:41;;;;;;;15.73;6.22;;;;;;;41.26;17.63;93533.94;5052654;28;20025;-58
2021/07/29 09:22:16;;;;;;;16.42;6.13;;;;;;;41.19;17.33;93534.81;5053355;27;20418;-58
2021/07/29 09:25:02;;;;;;;17.33;6.45;;;;;;;41.31;17.41;93529.50;5061494;27;20058;-58
2021/07/29 09:27:40;;;;;;;19.30;6.25;;;;;;;41.15;16.80;93526.91;5044699;28;20466;-58
2021/07/29 09:30:18;;;;;;;20.92;6.18;;;;;;;40.95;17.68;93527.31;5039892;28;20079;-58
2021/07/29 09:33:10;;;;;;;43.30;7.38;;;;;;;40.89;18.21;93521.66;5039590;28;20464;-58
2021/07/29 09:35:44;;;;;;;18.30;6.57;;;;;;;41.08;18.40;93522.72;5037610;28;20017;-58
2021/07/29 09:38:20;;;;;;;20.30;7.18;;;;;;;41.20;17.92;93522.44;5037862;28;20034;-58
2021/07/29 09:40:49;;;;;;;23.02;6.80;;;;;;;41.32;17.33;93521.53;5037492;28;20017;-58
2021/07/29 09:43:22;;;;;;;15.80;6.53;;;;;;;41.29;17.33;93515.06;5037723;28;20410;-58
2021/07/29 09:45:50;;;;;;;16.67;5.78;;;;;;;41.22;18.40;93521.69;5036465;28;20021;-58
2021/07/29 09:48:18;;;;;;;17.30;6.60;;;;;;;41.23;17.40;93517.34;5038537;28;20017;-58
2021/07/29 09:50:44;;;;;;;24.88;6.72;;;;;;;41.39;18.23;93520.63;5040299;28;20039;-58
2021/07/29 09:53:10;;;;;;;21.52;7.50;;;;;;;41.52;16.88;93494.97;5036220;28;20489;-58
2021/07/29 09:55:36;;;;;;;15.57;5.80;;;;;;;41.95;16.52;93515.75;5040876;27;20017;-58
2021/07/29 09:58:02;;;;;;;16.85;6.13;;;;;;;42.29;15.92;93522.94;5037730;28;20116;-57
2021/07/29 10:00:28;;;;;;;19.45;7.10;;;;;;;42.70;16.04;93513.91;5037270;28;20574;-58
2021/07/29 10:02:54;;;;;;;14.05;6.80;;;;;;;43.08;16.23;93530.31;5036736;28;20021;-58
2021/07/29 10:05:51;;;;;;;16.17;6.47;;;;;;;43.54;15.85;93522.47;5034363;28;20486;-58
2021/07/29 10:08:29;;;;;;;18.73;6.57;;;;;;;43.60;16.18;93523.00;5021754;28;20413;-58
2021/07/29 10:10:55;;;;;;;28.60;7.15;;;;;;;43.74;15.35;93507.34;5050383;28;20059;-58
2021/07/29 10:13:32;;;;;;;24.58;6.72;;;;;;;44.15;15.15;93518.44;5037141;28;20036;-58
2021/07/29 10:15:58;;;;;;;14.93;6.43;;;;;;;44.16;14.94;93520.56;5035633;28;20108;-58
2021/07/29 10:18:23;;;;;;;15.25;5.78;;;;;;;44.58;15.17;93515.56;5041665;27;20542;-58
2021/07/29 10:21:22;;;;;;;14.80;5.90;;;;;;;44.77;15.01;93513.44;5036752;28;20505;-58
2021/07/29 10:23:52;;;;;;;20.20;8.20;;;;;;;44.14;13.74;93506.09;5047409;27;20382;-58
2021/07/29 10:26:19;;;;;;;16.98;5.60;;;;;;;42.74;14.93;93500.00;5037757;28;20041;-57
2021/07/29 10:28:44;;;;;;;16.70;7.00;;;;;;;41.01;16.94;93506.19;5034404;28;20104;-58
2021/07/29 10:31:12;;;;;;;16.40;6.35;;;;;;;41.31;17.57;93506.31;5036067;28;20161;-58
2021/07/29 10:33:38;;;;;;;15.02;6.95;;;;;;;41.87;17.63;93500.72;5034759;28;20100;-58
2021/07/29 10:36:04;;;;;;;17.55;6.93;;;;;;;42.33;15.98;93501.81;5034314;28;20432;-58
2021/07/29 10:38:38;;;;;;;31.48;7.03;;;;;;;42.19;16.02;93494.19;5035371;28;20417;-58
2021/07/29 10:41:25;;;;;;;15.75;6.82;;;;;;;42.60;16.79;93497.50;5035902;28;20144;-58
2021/07/29 10:43:51;;;;;;;17.05;6.80;;;;;;;42.75;15.96;93495.63;5005156;28;20029;-58
2021/07/29 10:46:16;;;;;;;16.63;6.60;;;;;;;43.06;16.17;93495.50;5035595;28;20032;-58
2021/07/29 10:48:46;;;;;;;24.42;7.18;;;;;;;42.70;15.51;93487.78;5035048;28;20017;-59
2021/07/29 10:51:12;;;;;;;17.33;6.35;;;;;;;42.89;16.22;93486.53;5032293;28;20060;-58
2021/07/29 10:53:42;;;;;;;15.35;7.32;;;;;;;42.82;16.35;93488.16;5036100;27;20135;-58
2021/07/29 10:56:08;;;;;;;26.23;7.13;;;;;;;42.48;15.97;93479.66;5033387;28;20017;-58
2021/07/29 10:58:44;;;;;;;17.75;7.00;;;;;;;42.46;15.99;93480.44;5035656;28;20032;-58
2021/07/29 11:01:10;;;;;;;17.13;6.90;;;;;;;42.69;14.98;93474.75;5033266;28;20025;-58
2021/07/29 11:03:47;;;;;;;17.90;6.30;;;;;;;41.53;14.91;93473.22;5036468;28;20021;-58
2021/07/29 11:06:40;;;;;;;17.40;6.75;;;;;;;40.76;17.75;93471.19;5034485;28;20389;-58
2021/07/29 11:09:13;;;;;;;17.38;6.70;;;;;;;39.60;18.39;93468.09;5035693;28;20482;-57
2021/07/29 11:11:40;;;;;;;17.15;6.45;;;;;;;40.11;18.20;93469.47;5035169;28;20318;-60
2021/07/29 11:14:06;;;;;;;21.25;6.07;;;;;;;40.88;17.48;93476.78;5042468;27;20348;-60
2021/07/29 11:16:32;;;;;;;18.75;7.68;;;;;;;41.58;16.98;93462.97;5032173;28;20593;-60
2021/07/29 11:19:02;;;;;;;19.75;6.85;;;;;;;42.21;16.35;93465.13;5034695;28;20043;-60
2021/07/29 11:21:27;;;;;;;19.80;6.68;;;;;;;42.40;15.14;93460.25;5035819;28;20609;-60
2021/07/29 11:23:53;;;;;;;18.20;6.28;;;;;;;42.42;15.87;93463.09;5046448;27;20040;-60
2021/07/29 11:26:19;;;;;;;15.45;6.45;;;;;;;42.76;15.41;93461.47;5032796;28;20421;-60